createdAt,value
2017-04-07T00:00:37.964Z,1020.6
2017-04-07T00:01:18.428Z,1020.66
2017-04-07T00:01:58.901Z,1020.64
2017-04-07T00:02:39.362Z,1020.7
2017-04-07T00:03:19.809Z,1020.56
2017-04-07T00:04:00.315Z,1020.62
2017-04-07T00:04:40.777Z,1020.61
2017-04-07T00:05:21.234Z,1020.58
2017-04-07T00:06:01.672Z,1020.66
2017-04-07T00:06:42.164Z,1020.73
2017-04-07T00:07:22.670Z,1020.61
2017-04-07T00:08:03.176Z,1020.79
2017-04-07T00:08:43.618Z,1020.59
2017-04-07T00:09:24.107Z,1020.52
2017-04-07T00:10:04.561Z,1020.64
2017-04-07T00:10:45.002Z,1020.58
2017-04-07T00:11:25.495Z,1020.43
2017-04-07T00:12:05.956Z,1020.54
2017-04-07T00:12:46.422Z,1020.69
2017-04-07T00:13:26.896Z,1020.66
2017-04-07T00:14:07.355Z,1020.46
2017-04-07T00:14:47.794Z,1020.52
2017-04-07T00:15:29.769Z,1020.47
2017-04-07T00:16:10.254Z,1020.54
2017-04-07T00:16:50.750Z,1020.57
2017-04-07T00:17:31.202Z,1020.54
2017-04-07T00:18:11.684Z,1020.48
2017-04-07T00:18:52.146Z,1020.44
2017-04-07T00:19:32.585Z,1020.64
2017-04-07T00:20:13.115Z,1020.48
2017-04-07T00:20:53.547Z,1020.56
2017-04-07T00:21:34.003Z,1020.55
2017-04-07T00:22:14.493Z,1020.51
2017-04-07T00:22:54.951Z,1020.54
2017-04-07T00:23:35.393Z,1020.61
2017-04-07T00:24:15.879Z,1020.65
2017-04-07T00:24:56.325Z,1020.48
2017-04-07T00:25:36.759Z,1020.49
2017-04-07T00:26:17.236Z,1020.56
2017-04-07T00:26:57.694Z,1020.42
2017-04-07T00:27:38.198Z,1020.53
2017-04-07T00:28:18.641Z,1020.5
2017-04-07T00:28:59.090Z,1020.52
2017-04-07T00:29:39.552Z,1020.53
2017-04-07T00:30:20.079Z,1020.51
2017-04-07T00:31:00.538Z,1020.44
2017-04-07T00:31:41.000Z,1020.33
2017-04-07T00:32:21.472Z,1020.43
2017-04-07T00:33:01.967Z,1020.45
2017-04-07T00:33:42.432Z,1020.43
2017-04-07T00:34:23.078Z,1020.3
2017-04-07T00:35:03.571Z,1020.44
2017-04-07T00:35:44.043Z,1020.33
2017-04-07T00:36:24.545Z,1020.37
2017-04-07T00:37:04.967Z,1020.39
2017-04-07T00:37:45.502Z,1020.44
2017-04-07T00:38:25.918Z,1020.34
2017-04-07T00:39:06.416Z,1020.51
2017-04-07T00:39:46.883Z,1020.32
2017-04-07T00:40:27.335Z,1020.33
2017-04-07T00:41:07.783Z,1020.38
2017-04-07T00:41:48.280Z,1020.36
2017-04-07T00:42:28.719Z,1020.4
2017-04-07T00:43:09.221Z,1020.32
2017-04-07T00:43:49.668Z,1020.3
2017-04-07T00:44:30.155Z,1020.24
2017-04-07T00:45:10.657Z,1020.2
2017-04-07T00:45:51.131Z,1020.12
2017-04-07T00:46:31.548Z,1020.13
2017-04-07T00:47:12.038Z,1020.14
2017-04-07T00:47:52.502Z,1020.17
2017-04-07T00:48:32.991Z,1020.12
2017-04-07T00:49:13.427Z,1020.07
2017-04-07T00:49:53.930Z,1020.13
2017-04-07T00:50:34.384Z,1019.93
2017-04-07T00:51:14.902Z,1020.02
2017-04-07T00:51:55.348Z,1020
2017-04-07T00:52:35.816Z,1020.08
2017-04-07T00:53:16.310Z,1020.11
2017-04-07T00:53:56.759Z,1020.13
2017-04-07T00:54:37.220Z,1019.94
2017-04-07T00:55:17.720Z,1020.08
2017-04-07T00:55:58.143Z,1020
2017-04-07T00:56:38.583Z,1020.26
2017-04-07T00:57:19.035Z,1020.18
2017-04-07T00:57:59.568Z,1020.05
2017-04-07T00:58:40.012Z,1020.16
2017-04-07T00:59:20.481Z,1019.99
2017-04-07T01:00:00.952Z,1020.03
2017-04-07T01:00:41.402Z,1019.95
2017-04-07T01:01:21.887Z,1020.15
2017-04-07T01:02:02.348Z,1020.09
2017-04-07T01:02:42.839Z,1020.12
2017-04-07T01:03:23.295Z,1020.04
2017-04-07T01:04:03.787Z,1020.05
2017-04-07T01:04:44.286Z,1019.98
2017-04-07T01:05:24.797Z,1020.05
2017-04-07T01:06:05.273Z,1020.03
2017-04-07T01:06:45.742Z,1019.93
2017-04-07T01:07:26.190Z,1020.03
2017-04-07T01:08:06.691Z,1019.93
2017-04-07T01:08:47.158Z,1019.87
2017-04-07T01:09:27.717Z,1019.96
2017-04-07T01:10:08.189Z,1019.89
2017-04-07T01:10:48.630Z,1019.96
2017-04-07T01:11:29.114Z,1019.85
2017-04-07T01:12:09.580Z,1019.89
2017-04-07T01:12:50.062Z,1019.91
2017-04-07T01:13:30.491Z,1019.9
2017-04-07T01:14:10.952Z,1019.89
2017-04-07T01:14:51.500Z,1019.93
2017-04-07T01:15:31.906Z,1019.9
2017-04-07T01:16:12.401Z,1019.82
2017-04-07T01:16:52.889Z,1019.85
2017-04-07T01:17:33.324Z,1019.79
2017-04-07T01:18:13.793Z,1019.87
2017-04-07T01:18:54.212Z,1019.81
2017-04-07T01:19:34.714Z,1019.97
2017-04-07T01:20:15.194Z,1019.94
2017-04-07T01:20:55.646Z,1019.88
2017-04-07T01:21:36.064Z,1019.93
2017-04-07T01:22:16.550Z,1019.85
2017-04-07T01:22:57.070Z,1020
2017-04-07T01:23:37.507Z,1019.94
2017-04-07T01:24:17.949Z,1019.85
2017-04-07T01:24:58.410Z,1019.9
2017-04-07T01:25:38.868Z,1019.97
2017-04-07T01:26:19.330Z,1020.04
2017-04-07T01:26:59.822Z,1019.87
2017-04-07T01:27:40.299Z,1019.88
2017-04-07T01:28:20.755Z,1019.86
2017-04-07T01:29:01.248Z,1019.86
2017-04-07T01:29:41.673Z,1019.9
2017-04-07T01:30:22.197Z,1019.93
2017-04-07T01:31:02.660Z,1019.82
2017-04-07T01:31:43.151Z,1019.9
2017-04-07T01:32:23.649Z,1019.88
2017-04-07T01:33:04.101Z,1019.86
2017-04-07T01:33:44.567Z,1019.92
2017-04-07T01:34:25.071Z,1019.84
2017-04-07T01:35:05.578Z,1019.84
2017-04-07T01:35:45.992Z,1019.82
2017-04-07T01:36:26.476Z,1019.77
2017-04-07T01:37:06.947Z,1019.85
2017-04-07T01:37:47.390Z,1019.83
2017-04-07T01:38:27.883Z,1019.85
2017-04-07T01:39:08.326Z,1019.86
2017-04-07T01:39:48.831Z,1019.89
2017-04-07T01:40:29.217Z,1019.79
2017-04-07T01:41:09.710Z,1019.73
2017-04-07T01:41:50.242Z,1019.8
2017-04-07T01:42:30.698Z,1019.78
2017-04-07T01:43:11.143Z,1019.75
2017-04-07T01:43:51.617Z,1019.83
2017-04-07T01:44:32.042Z,1019.76
2017-04-07T01:45:12.543Z,1019.83
2017-04-07T01:45:53.011Z,1019.76
2017-04-07T01:46:33.495Z,1019.74
2017-04-07T01:47:13.948Z,1019.78
2017-04-07T01:47:54.417Z,1019.87
2017-04-07T01:48:34.876Z,1019.73
2017-04-07T01:49:15.369Z,1019.8
2017-04-07T01:49:55.797Z,1019.75
2017-04-07T01:50:36.297Z,1019.66
2017-04-07T01:51:16.762Z,1019.76
2017-04-07T01:51:57.202Z,1019.64
2017-04-07T01:52:37.757Z,1019.69
2017-04-07T01:53:18.146Z,1019.83
2017-04-07T01:53:58.624Z,1019.75
2017-04-07T01:54:39.096Z,1019.78
2017-04-07T01:55:19.581Z,1019.7
2017-04-07T01:56:00.027Z,1019.76
2017-04-07T01:56:40.503Z,1019.73
2017-04-07T01:57:20.937Z,1019.77
2017-04-07T01:58:01.401Z,1019.71
2017-04-07T01:58:41.863Z,1019.82
2017-04-07T01:59:22.324Z,1019.78
2017-04-07T02:00:02.803Z,1019.74
2017-04-07T02:00:43.270Z,1019.8
2017-04-07T02:01:23.770Z,1019.64
2017-04-07T02:02:04.208Z,1019.73
2017-04-07T02:02:44.676Z,1019.75
2017-04-07T02:03:25.131Z,1019.84
2017-04-07T02:04:05.595Z,1019.7
2017-04-07T02:04:46.034Z,1019.61
2017-04-07T02:05:26.507Z,1019.67
2017-04-07T02:06:06.980Z,1019.77
2017-04-07T02:06:47.443Z,1019.71
2017-04-07T02:07:27.956Z,1019.79
2017-04-07T02:08:08.389Z,1019.72
2017-04-07T02:08:48.870Z,1019.72
2017-04-07T02:09:29.335Z,1019.63
2017-04-07T02:10:09.792Z,1019.67
2017-04-07T02:10:50.252Z,1019.66
2017-04-07T02:11:30.732Z,1019.73
2017-04-07T02:12:11.206Z,1019.61
2017-04-07T02:12:51.663Z,1019.74
2017-04-07T02:13:32.130Z,1019.69
2017-04-07T02:14:12.602Z,1019.62
2017-04-07T02:14:53.208Z,1019.66
2017-04-07T02:15:33.728Z,1019.66
2017-04-07T02:16:14.169Z,1019.67
2017-04-07T02:16:54.682Z,1019.55
2017-04-07T02:17:35.134Z,1019.55
2017-04-07T02:18:15.586Z,1019.73
2017-04-07T02:18:56.025Z,1019.6
2017-04-07T02:19:36.603Z,1019.57
2017-04-07T02:20:17.090Z,1019.58
2017-04-07T02:20:57.557Z,1019.59
2017-04-07T02:21:38.061Z,1019.59
2017-04-07T02:22:18.523Z,1019.54
2017-04-07T02:22:58.975Z,1019.62
2017-04-07T02:23:39.421Z,1019.47
2017-04-07T02:24:19.919Z,1019.57
2017-04-07T02:25:00.361Z,1019.51
2017-04-07T02:25:40.874Z,1019.59
2017-04-07T02:26:21.441Z,1019.57
2017-04-07T02:27:01.850Z,1019.64
2017-04-07T02:27:42.314Z,1019.59
2017-04-07T02:28:22.837Z,1019.6
2017-04-07T02:29:03.288Z,1019.64
2017-04-07T02:29:43.761Z,1019.57
2017-04-07T02:30:24.240Z,1019.54
2017-04-07T02:31:04.656Z,1019.6
2017-04-07T02:31:45.216Z,1019.53
2017-04-07T02:32:25.673Z,1019.59
2017-04-07T02:33:06.154Z,1019.58
2017-04-07T02:33:46.601Z,1019.54
2017-04-07T02:34:27.041Z,1019.51
2017-04-07T02:35:07.546Z,1019.6
2017-04-07T02:35:48.044Z,1019.67
2017-04-07T02:36:28.441Z,1019.52
2017-04-07T02:37:08.955Z,1019.55
2017-04-07T02:37:49.389Z,1019.57
2017-04-07T02:38:29.871Z,1019.53
2017-04-07T02:39:10.369Z,1019.6
2017-04-07T02:39:50.796Z,1019.55
2017-04-07T02:40:31.249Z,1019.49
2017-04-07T02:41:11.719Z,1019.64
2017-04-07T02:41:52.224Z,1019.47
2017-04-07T02:42:32.661Z,1019.45
2017-04-07T02:43:13.128Z,1019.5
2017-04-07T02:43:53.584Z,1019.46
2017-04-07T02:44:34.076Z,1019.5
2017-04-07T02:45:14.517Z,1019.5
2017-04-07T02:45:54.967Z,1019.56
2017-04-07T02:46:35.460Z,1019.56
2017-04-07T02:47:15.893Z,1019.55
2017-04-07T02:47:56.337Z,1019.55
2017-04-07T02:48:36.851Z,1019.45
2017-04-07T02:49:17.304Z,1019.57
2017-04-07T02:49:57.776Z,1019.52
2017-04-07T02:50:38.221Z,1019.55
2017-04-07T02:51:18.709Z,1019.52
2017-04-07T02:51:59.147Z,1019.48
2017-04-07T02:52:39.668Z,1019.52
2017-04-07T02:53:20.147Z,1019.39
2017-04-07T02:54:00.617Z,1019.64
2017-04-07T02:54:41.049Z,1019.48
2017-04-07T02:55:21.543Z,1019.66
2017-04-07T02:56:02.004Z,1019.5
2017-04-07T02:56:42.472Z,1019.51
2017-04-07T02:57:22.935Z,1019.49
2017-04-07T02:58:03.416Z,1019.52
2017-04-07T02:58:43.873Z,1019.45
2017-04-07T02:59:24.351Z,1019.5
2017-04-07T03:00:04.852Z,1019.48
2017-04-07T03:02:37.520Z,1019.5
2017-04-07T03:03:21.232Z,1019.5
2017-04-07T03:04:04.400Z,1019.58
2017-04-07T03:04:44.919Z,1019.45
2017-04-07T03:05:25.350Z,1019.54
2017-04-07T03:06:05.845Z,1019.77
2017-04-07T03:06:46.284Z,1019.46
2017-04-07T03:07:26.794Z,1019.5
2017-04-07T03:08:07.240Z,1019.58
2017-04-07T03:08:47.698Z,1019.49
2017-04-07T03:09:28.184Z,1019.49
2017-04-07T03:10:08.652Z,1019.51
2017-04-07T03:10:49.089Z,1019.6
2017-04-07T03:11:29.547Z,1019.51
2017-04-07T03:12:10.033Z,1019.42
2017-04-07T03:12:50.503Z,1019.41
2017-04-07T03:13:30.953Z,1019.44
2017-04-07T03:14:11.391Z,1019.47
2017-04-07T03:14:51.892Z,1019.46
2017-04-07T03:15:32.407Z,1019.33
2017-04-07T03:16:12.881Z,1019.46
2017-04-07T03:16:53.377Z,1019.41
2017-04-07T03:17:33.855Z,1019.51
2017-04-07T03:18:14.320Z,1019.48
2017-04-07T03:18:54.766Z,1019.52
2017-04-07T03:19:35.240Z,1019.5
2017-04-07T03:20:15.731Z,1019.55
2017-04-07T03:20:56.170Z,1019.41
2017-04-07T03:21:36.651Z,1019.46
2017-04-07T03:22:17.133Z,1019.5
2017-04-07T03:22:57.594Z,1019.43
2017-04-07T03:23:38.091Z,1019.48
2017-04-07T03:24:18.567Z,1019.5
2017-04-07T03:24:59.024Z,1019.4
2017-04-07T03:25:39.510Z,1019.51
2017-04-07T03:26:19.946Z,1019.53
2017-04-07T03:27:00.447Z,1019.57
2017-04-07T03:27:40.893Z,1019.52
2017-04-07T03:28:21.345Z,1019.48
2017-04-07T03:29:01.861Z,1019.49
2017-04-07T03:29:42.318Z,1019.41
2017-04-07T03:30:22.799Z,1019.46
2017-04-07T03:31:03.249Z,1019.45
2017-04-07T03:31:43.730Z,1019.35
2017-04-07T03:32:24.192Z,1019.36
2017-04-07T03:33:04.670Z,1019.49
2017-04-07T03:33:45.133Z,1019.45
2017-04-07T03:34:25.641Z,1019.31
2017-04-07T03:35:06.053Z,1019.38
2017-04-07T03:35:46.579Z,1019.28
2017-04-07T03:36:27.018Z,1019.38
2017-04-07T03:37:07.489Z,1019.37
2017-04-07T03:37:47.942Z,1019.41
2017-04-07T03:38:28.440Z,1019.39
2017-04-07T03:39:08.912Z,1019.41
2017-04-07T03:39:49.392Z,1019.38
2017-04-07T03:40:29.836Z,1019.47
2017-04-07T03:41:10.311Z,1019.45
2017-04-07T03:41:50.814Z,1019.5
2017-04-07T03:42:31.349Z,1019.4
2017-04-07T03:43:11.799Z,1019.4
2017-04-07T03:43:52.347Z,1019.44
2017-04-07T03:44:32.796Z,1019.39
2017-04-07T03:45:13.289Z,1019.3
2017-04-07T03:45:53.737Z,1019.37
2017-04-07T03:46:34.210Z,1019.4
2017-04-07T03:47:14.706Z,1019.32
2017-04-07T03:47:55.153Z,1019.27
2017-04-07T03:48:35.628Z,1019.38
2017-04-07T03:49:16.107Z,1019.32
2017-04-07T03:49:56.554Z,1019.19
2017-04-07T03:50:37.017Z,1019.2
2017-04-07T03:51:17.498Z,1019.26
2017-04-07T03:51:57.936Z,1019.18
2017-04-07T03:52:38.391Z,1019.24
2017-04-07T03:53:18.866Z,1019.28
2017-04-07T03:53:59.343Z,1019.16
2017-04-07T03:54:39.795Z,1019.14
2017-04-07T03:55:20.370Z,1019.14
2017-04-07T03:56:00.861Z,1019.2
2017-04-07T03:56:41.314Z,1019.16
2017-04-07T03:57:21.761Z,1019.16
2017-04-07T03:58:02.196Z,1019.17
2017-04-07T03:58:42.682Z,1019.17
2017-04-07T03:59:23.201Z,1019.18
2017-04-07T04:00:03.672Z,1019.14
2017-04-07T04:00:44.202Z,1019.06
2017-04-07T04:01:24.679Z,1019.04
2017-04-07T04:02:05.143Z,1019.15
2017-04-07T04:02:45.605Z,1019.04
2017-04-07T04:03:26.099Z,1018.96
2017-04-07T04:04:06.542Z,1018.95
2017-04-07T04:04:47.024Z,1019.05
2017-04-07T04:05:27.465Z,1019.05
2017-04-07T04:06:07.970Z,1019.03
2017-04-07T04:06:48.559Z,1019.09
2017-04-07T04:07:29.046Z,1018.94
2017-04-07T04:08:09.499Z,1018.97
2017-04-07T04:08:50.013Z,1019.12
2017-04-07T04:09:30.457Z,1019.01
2017-04-07T04:10:10.910Z,1019.02
2017-04-07T04:10:51.402Z,1019.08
2017-04-07T04:11:31.867Z,1019.1
2017-04-07T04:12:12.305Z,1019.06
2017-04-07T04:12:52.778Z,1019.06
2017-04-07T04:13:33.273Z,1019.02
2017-04-07T04:14:13.726Z,1018.95
2017-04-07T04:14:54.215Z,1018.97
2017-04-07T04:15:34.680Z,1018.95
2017-04-07T04:16:15.142Z,1018.91
2017-04-07T04:16:55.615Z,1018.96
2017-04-07T04:17:36.101Z,1018.9
2017-04-07T04:18:16.587Z,1018.97
2017-04-07T04:18:57.008Z,1018.94
2017-04-07T04:19:37.486Z,1018.99
2017-04-07T04:20:17.919Z,1018.98
2017-04-07T04:20:58.396Z,1018.94
2017-04-07T04:21:38.859Z,1018.86
2017-04-07T04:22:19.351Z,1018.93
2017-04-07T04:22:59.827Z,1018.82
2017-04-07T04:23:40.301Z,1018.89
2017-04-07T04:24:20.766Z,1018.89
2017-04-07T04:25:01.232Z,1018.84
2017-04-07T04:25:41.734Z,1018.86
2017-04-07T04:26:22.206Z,1018.83
2017-04-07T04:27:02.703Z,1018.9
2017-04-07T04:27:43.174Z,1018.94
2017-04-07T04:28:23.670Z,1018.99
2017-04-07T04:29:04.144Z,1018.95
2017-04-07T04:29:44.566Z,1018.93
2017-04-07T04:30:25.082Z,1018.93
2017-04-07T04:31:05.526Z,1018.97
2017-04-07T04:31:45.995Z,1019.03
2017-04-07T04:32:26.456Z,1019.01
2017-04-07T04:33:06.925Z,1019.15
2017-04-07T04:33:47.424Z,1019.07
2017-04-07T04:34:27.868Z,1019.15
2017-04-07T04:35:08.332Z,1019.05
2017-04-07T04:35:48.785Z,1019
2017-04-07T04:36:29.255Z,1019.05
2017-04-07T04:37:09.729Z,1019.17
2017-04-07T04:37:50.179Z,1019.09
2017-04-07T04:38:30.662Z,1018.97
2017-04-07T04:39:11.108Z,1019.03
2017-04-07T04:39:51.594Z,1019.03
2017-04-07T04:40:32.040Z,1019.01
2017-04-07T04:41:12.495Z,1019
2017-04-07T04:41:53.021Z,1019.06
2017-04-07T04:42:33.488Z,1019.1
2017-04-07T04:43:13.943Z,1019.14
2017-04-07T04:43:54.392Z,1019.08
2017-04-07T04:44:34.889Z,1019.04
2017-04-07T04:45:15.358Z,1019.09
2017-04-07T04:45:55.822Z,1019.16
2017-04-07T04:46:36.308Z,1019.01
2017-04-07T04:47:16.786Z,1019.08
2017-04-07T04:47:57.238Z,1019.16
2017-04-07T04:48:37.698Z,1019.14
2017-04-07T04:49:18.171Z,1019.03
2017-04-07T04:49:58.649Z,1019.1
2017-04-07T04:50:39.122Z,1019.1
2017-04-07T04:51:19.566Z,1019.07
2017-04-07T04:52:00.048Z,1018.97
2017-04-07T04:52:40.546Z,1018.98
2017-04-07T04:53:21.009Z,1018.98
2017-04-07T04:54:01.466Z,1019.11
2017-04-07T04:54:41.923Z,1019.03
2017-04-07T04:55:22.400Z,1019.09
2017-04-07T04:56:02.850Z,1019.18
2017-04-07T04:56:43.342Z,1019.17
2017-04-07T04:57:23.838Z,1019.29
2017-04-07T04:58:04.269Z,1019.41
2017-04-07T04:58:44.760Z,1019.27
2017-04-07T04:59:25.301Z,1019.04
2017-04-07T05:00:05.758Z,1019.21
2017-04-07T05:00:46.248Z,1019.07
2017-04-07T05:01:26.708Z,1019.18
2017-04-07T05:02:07.114Z,1019.03
2017-04-07T05:02:47.586Z,1019.18
2017-04-07T05:03:28.049Z,1018.96
2017-04-07T05:04:08.548Z,1019.13
2017-04-07T05:04:48.997Z,1019.08
2017-04-07T05:05:29.471Z,1019.05
2017-04-07T05:06:09.941Z,1019.33
2017-04-07T05:06:50.444Z,1019.11
2017-04-07T05:07:30.890Z,1019.02
2017-04-07T05:08:11.346Z,1019
2017-04-07T05:08:51.824Z,1019.03
2017-04-07T05:09:32.302Z,1019.18
2017-04-07T05:10:12.764Z,1019.01
2017-04-07T05:10:53.224Z,1019
2017-04-07T05:11:33.710Z,1019.06
2017-04-07T05:12:14.177Z,1019.14
2017-04-07T05:12:54.682Z,1019.02
2017-04-07T05:13:35.125Z,1018.92
2017-04-07T05:14:15.615Z,1018.93
2017-04-07T05:14:56.095Z,1019.04
2017-04-07T05:15:36.592Z,1019.01
2017-04-07T05:16:17.041Z,1019
2017-04-07T05:16:57.493Z,1019.04
2017-04-07T05:17:38.047Z,1019.01
2017-04-07T05:18:18.448Z,1019.02
2017-04-07T05:18:58.879Z,1019.02
2017-04-07T05:19:39.372Z,1019.04
2017-04-07T05:20:19.833Z,1018.97
2017-04-07T05:21:00.342Z,1018.9
2017-04-07T05:21:40.844Z,1018.93
2017-04-07T05:22:21.284Z,1019.11
2017-04-07T05:23:01.781Z,1018.99
2017-04-07T05:23:42.220Z,1019.01
2017-04-07T05:24:22.749Z,1019.02
2017-04-07T05:25:03.210Z,1018.91
2017-04-07T05:25:43.721Z,1018.93
2017-04-07T05:26:24.233Z,1019.11
2017-04-07T05:27:04.705Z,1019.09
2017-04-07T05:27:45.188Z,1018.96
2017-04-07T05:28:25.642Z,1019.01
2017-04-07T05:29:06.092Z,1018.9
2017-04-07T05:29:46.532Z,1018.93
2017-04-07T05:30:27.033Z,1018.83
2017-04-07T05:31:07.524Z,1018.96
2017-04-07T05:31:47.951Z,1018.95
2017-04-07T05:32:28.547Z,1018.93
2017-04-07T05:33:09.028Z,1018.85
2017-04-07T05:33:49.480Z,1018.87
2017-04-07T05:34:29.955Z,1018.82
2017-04-07T05:35:10.418Z,1018.88
2017-04-07T05:35:50.880Z,1018.9
2017-04-07T05:36:31.356Z,1018.87
2017-04-07T05:37:11.822Z,1018.9
2017-04-07T05:37:52.275Z,1018.93
2017-04-07T05:38:32.710Z,1018.87
2017-04-07T05:39:13.204Z,1018.93
2017-04-07T05:39:53.691Z,1018.9
2017-04-07T05:40:34.201Z,1018.93
2017-04-07T05:41:14.632Z,1018.98
2017-04-07T05:41:55.085Z,1019.03
2017-04-07T05:42:35.522Z,1018.99
2017-04-07T05:43:15.993Z,1019.13
2017-04-07T05:43:56.434Z,1019.05
2017-04-07T05:44:36.914Z,1019.15
2017-04-07T05:45:17.398Z,1019.17
2017-04-07T05:45:57.851Z,1019.03
2017-04-07T05:46:38.313Z,1019.07
2017-04-07T05:47:18.799Z,1019.09
2017-04-07T05:47:59.292Z,1019.14
2017-04-07T05:48:39.720Z,1019.14
2017-04-07T05:49:20.211Z,1019.1
2017-04-07T05:50:00.670Z,1019.12
2017-04-07T05:50:41.130Z,1019.11
2017-04-07T05:51:21.620Z,1019.02
2017-04-07T05:52:02.097Z,1019.06
2017-04-07T05:52:42.556Z,1019.01
2017-04-07T05:53:23.082Z,1018.94
2017-04-07T05:54:03.485Z,1018.94
2017-04-07T05:54:43.982Z,1019.02
2017-04-07T05:55:24.484Z,1019.01
2017-04-07T05:56:04.954Z,1019.01
2017-04-07T05:56:45.470Z,1019.06
2017-04-07T05:57:25.937Z,1019.01
2017-04-07T05:58:06.391Z,1018.96
2017-04-07T05:58:46.852Z,1019.08
2017-04-07T05:59:27.303Z,1019.06
2017-04-07T06:00:07.764Z,1018.98
2017-04-07T06:00:48.286Z,1019.03
2017-04-07T06:01:28.725Z,1019.11
2017-04-07T06:02:09.188Z,1019.03
2017-04-07T06:02:49.710Z,1019.04
2017-04-07T06:03:30.176Z,1019.18
2017-04-07T06:04:10.628Z,1019.06
2017-04-07T06:04:51.120Z,1019.03
2017-04-07T06:05:31.562Z,1019.03
2017-04-07T06:06:12.020Z,1019.01
2017-04-07T06:06:52.485Z,1019.03
2017-04-07T06:07:32.968Z,1018.9
2017-04-07T06:08:13.453Z,1018.98
2017-04-07T06:08:53.902Z,1018.98
2017-04-07T06:09:34.366Z,1018.92
2017-04-07T06:10:14.831Z,1018.82
2017-04-07T06:10:55.350Z,1018.99
2017-04-07T06:11:35.796Z,1018.87
2017-04-07T06:12:16.264Z,1019.12
2017-04-07T06:12:56.796Z,1018.87
2017-04-07T06:13:37.176Z,1018.99
2017-04-07T06:14:17.678Z,1018.82
2017-04-07T06:14:58.124Z,1019
2017-04-07T06:15:38.610Z,1018.87
2017-04-07T06:16:19.045Z,1018.87
2017-04-07T06:16:59.595Z,1018.84
2017-04-07T06:17:40.030Z,1018.88
2017-04-07T06:18:20.506Z,1018.97
2017-04-07T06:19:00.968Z,1019.02
2017-04-07T06:19:41.487Z,1018.96
2017-04-07T06:20:22.139Z,1019.05
2017-04-07T06:21:02.604Z,1018.97
2017-04-07T06:21:43.068Z,1019.13
2017-04-07T06:22:23.538Z,1019.08
2017-04-07T06:23:04.027Z,1018.95
2017-04-07T06:23:44.506Z,1018.96
2017-04-07T06:24:24.970Z,1019.04
2017-04-07T06:25:05.431Z,1019.02
2017-04-07T06:25:45.911Z,1018.99
2017-04-07T06:26:26.366Z,1019.07
2017-04-07T06:27:06.825Z,1019.09
2017-04-07T06:27:47.305Z,1019.12
2017-04-07T06:28:27.898Z,1019.06
2017-04-07T06:29:08.390Z,1019.08
2017-04-07T06:29:48.879Z,1019.08
2017-04-07T06:30:29.397Z,1019.04
2017-04-07T06:31:09.890Z,1019.05
2017-04-07T06:31:50.349Z,1019.03
2017-04-07T06:32:30.861Z,1018.94
2017-04-07T06:33:11.334Z,1018.99
2017-04-07T06:33:51.824Z,1019.03
2017-04-07T06:34:32.295Z,1018.95
2017-04-07T06:35:12.735Z,1018.95
2017-04-07T06:35:53.210Z,1019
2017-04-07T06:36:33.731Z,1018.94
2017-04-07T06:37:14.190Z,1018.93
2017-04-07T06:37:54.784Z,1019.02
2017-04-07T06:38:35.244Z,1019.06
2017-04-07T06:39:15.763Z,1018.99
2017-04-07T06:39:56.219Z,1018.97
2017-04-07T06:40:36.711Z,1018.95
2017-04-07T06:41:17.162Z,1018.95
2017-04-07T06:41:57.668Z,1018.9
2017-04-07T06:42:38.213Z,1018.98
2017-04-07T06:43:18.708Z,1018.82
2017-04-07T06:43:59.193Z,1018.94
2017-04-07T06:44:39.670Z,1018.98
2017-04-07T06:45:23.025Z,1018.91
2017-04-07T06:46:13.748Z,1018.97
2017-04-07T06:46:55.241Z,1018.91
2017-04-07T06:47:35.732Z,1018.94
2017-04-07T06:48:16.206Z,1018.93
2017-04-07T06:48:56.690Z,1019
2017-04-07T06:49:37.185Z,1019.03
2017-04-07T06:50:17.648Z,1019.15
2017-04-07T06:50:58.175Z,1019.08
2017-04-07T06:51:38.646Z,1019.14
2017-04-07T06:52:19.209Z,1019
2017-04-07T06:52:59.786Z,1019.08
2017-04-07T06:53:40.260Z,1019.04
2017-04-07T06:54:20.727Z,1019.02
2017-04-07T06:55:01.222Z,1019.2
2017-04-07T06:55:41.789Z,1019.03
2017-04-07T06:56:22.339Z,1019.26
2017-04-07T06:57:02.861Z,1019.09
2017-04-07T06:57:43.342Z,1019.44
2017-04-07T06:58:23.830Z,1019.16
2017-04-07T06:59:04.292Z,1019.12
2017-04-07T06:59:44.788Z,1019.36
2017-04-07T07:00:25.294Z,1019.28
2017-04-07T07:01:05.735Z,1019.33
2017-04-07T07:01:46.349Z,1019.39
2017-04-07T07:02:27.010Z,1019.23
2017-04-07T07:03:07.747Z,1019.2
2017-04-07T07:03:48.340Z,1019.27
2017-04-07T07:04:28.908Z,1019.23
2017-04-07T07:05:09.418Z,1019.22
2017-04-07T07:05:49.883Z,1019.18
2017-04-07T07:06:30.334Z,1019.22
2017-04-07T07:07:10.910Z,1019.13
2017-04-07T07:07:51.390Z,1019.17
2017-04-07T07:08:31.875Z,1019.38
2017-04-07T07:09:12.362Z,1019.3
2017-04-07T07:09:52.791Z,1019.34
2017-04-07T07:10:33.299Z,1019.25
2017-04-07T07:11:13.768Z,1019.34
2017-04-07T07:11:54.237Z,1019.2
2017-04-07T07:12:34.740Z,1019.26
2017-04-07T07:13:17.429Z,1019.16
2017-04-07T07:14:01.242Z,1019.5
2017-04-07T07:14:41.731Z,1019.16
2017-04-07T07:15:22.171Z,1019.26
2017-04-07T07:16:02.668Z,1019.21
2017-04-07T07:16:43.177Z,1019.25
2017-04-07T07:17:23.633Z,1019.16
2017-04-07T07:18:04.116Z,1019.29
2017-04-07T07:18:44.595Z,1019.31
2017-04-07T07:19:25.269Z,1019.23
2017-04-07T07:20:06.250Z,1019.25
2017-04-07T07:20:46.714Z,1019.18
2017-04-07T07:21:27.207Z,1019.09
2017-04-07T07:22:07.688Z,1019.26
2017-04-07T07:22:48.192Z,1019.18
2017-04-07T07:23:28.663Z,1019.18
2017-04-07T07:24:09.203Z,1019.27
2017-04-07T07:24:49.682Z,1019.18
2017-04-07T07:25:30.199Z,1019.18
2017-04-07T07:26:10.630Z,1019.35
2017-04-07T07:26:51.122Z,1019.29
2017-04-07T07:27:31.631Z,1019.22
2017-04-07T07:28:12.133Z,1019.34
2017-04-07T07:28:52.556Z,1019.27
2017-04-07T07:29:33.095Z,1019.38
2017-04-07T07:30:13.575Z,1019.34
2017-04-07T07:30:54.090Z,1019.18
2017-04-07T07:31:34.584Z,1019.23
2017-04-07T07:32:15.071Z,1019.2
2017-04-07T07:32:55.567Z,1019.4
2017-04-07T07:33:42.435Z,1019.25
2017-04-07T07:34:22.189Z,1019.21
2017-04-07T07:35:02.667Z,1019.16
2017-04-07T07:35:43.178Z,1019.19
2017-04-07T07:36:23.670Z,1019.22
2017-04-07T07:37:04.159Z,1019.41
2017-04-07T07:37:44.671Z,1019.31
2017-04-07T07:38:25.164Z,1019.25
2017-04-07T07:39:05.667Z,1019.27
2017-04-07T07:39:46.173Z,1019.22
2017-04-07T07:40:27.068Z,1019.23
2017-04-07T07:41:07.619Z,1019.18
2017-04-07T07:41:48.100Z,1019.2
2017-04-07T07:42:28.589Z,1019.29
2017-04-07T07:43:09.077Z,1019.2
2017-04-07T07:43:49.587Z,1019.3
2017-04-07T07:44:30.078Z,1019.53
2017-04-07T07:45:10.596Z,1019.37
2017-04-07T07:45:51.085Z,1019.18
2017-04-07T07:46:31.592Z,1019.15
2017-04-07T07:47:12.045Z,1019.21
2017-04-07T07:47:52.505Z,1019.23
2017-04-07T07:48:32.995Z,1019.35
2017-04-07T07:49:13.478Z,1019.16
2017-04-07T07:49:53.951Z,1019.22
2017-04-07T07:50:34.482Z,1019.13
2017-04-07T07:51:14.995Z,1019.34
2017-04-07T07:51:55.498Z,1019.16
2017-04-07T07:52:36.084Z,1019.22
2017-04-07T07:53:16.789Z,1019.26
2017-04-07T07:53:57.823Z,1019.16
2017-04-07T07:54:39.841Z,1019.18
2017-04-07T07:55:20.234Z,1019.15
2017-04-07T07:56:00.727Z,1019.18
2017-04-07T07:56:41.226Z,1019.18
2017-04-07T07:57:21.700Z,1019.14
2017-04-07T07:58:02.189Z,1019.13
2017-04-07T07:58:42.652Z,1019.15
2017-04-07T07:59:23.157Z,1019.24
2017-04-07T08:00:03.676Z,1019.32
2017-04-07T08:00:44.168Z,1019.27
2017-04-07T08:01:24.605Z,1019.3
2017-04-07T08:02:06.245Z,1019.23
2017-04-07T08:02:46.761Z,1019.21
2017-04-07T08:03:27.398Z,1019.19
2017-04-07T08:04:07.881Z,1019.2
2017-04-07T08:04:48.416Z,1019.31
2017-04-07T08:05:28.901Z,1019.36
2017-04-07T08:06:09.377Z,1019.4
2017-04-07T08:06:49.863Z,1019.26
2017-04-07T08:07:30.357Z,1019.36
2017-04-07T08:08:10.878Z,1019.3
2017-04-07T08:08:51.367Z,1019.26
2017-04-07T08:09:31.856Z,1019.24
2017-04-07T08:10:12.306Z,1019.27
2017-04-07T08:10:53.745Z,1019.21
2017-04-07T08:11:33.726Z,1019.28
2017-04-07T08:12:14.205Z,1019.33
2017-04-07T08:12:54.762Z,1019.33
2017-04-07T08:13:35.214Z,1019.34
2017-04-07T08:14:15.806Z,1019.24
2017-04-07T08:14:56.361Z,1019.33